sensor_id;sensor_type;location;lat;lon;timestamp;pressure;altitude;pressure_sealevel;temperature;humidity
5877;BME280;2964;42.144;24.730;2023-05-17T00:00:57;145163.00;;;14.44;93.10
5877;BME280;2964;42.144;24.730;2023-05-17T00:03:23;145157.97;;;14.42;92.08
5877;BME280;2964;42.144;24.730;2023-05-17T00:05:50;145116.34;;;14.25;93.56
5877;BME280;2964;42.144;24.730;2023-05-17T00:08:18;145079.81;;;14.10;94.22
5877;BME280;2964;42.144;24.730;2023-05-17T00:10:45;145089.94;;;14.15;94.86
5877;BME280;2964;42.144;24.730;2023-05-17T00:13:12;144979.09;;;13.69;96.10
5877;BME280;2964;42.144;24.730;2023-05-17T00:15:38;145033.22;;;13.92;96.88
5877;BME280;2964;42.144;24.730;2023-05-17T00:18:05;145050.88;;;13.99;97.03
5877;BME280;2964;42.144;24.730;2023-05-17T00:20:32;145004.28;;;13.80;98.12
5877;BME280;2964;42.144;24.730;2023-05-17T00:22:58;144980.31;;;13.70;98.97
5877;BME280;2964;42.144;24.730;2023-05-17T00:25:27;144976.59;;;13.68;99.99
5877;BME280;2964;42.144;24.730;2023-05-17T00:27:53;145006.78;;;13.81;100.00
5877;BME280;2964;42.144;24.730;2023-05-17T00:30:20;144994.19;;;13.76;100.00
5877;BME280;2964;42.144;24.730;2023-05-17T00:32:47;144923.69;;;13.47;100.00
5877;BME280;2964;42.144;24.730;2023-05-17T00:35:13;144892.22;;;13.34;100.00
5877;BME280;2964;42.144;24.730;2023-05-17T00:37:40;144992.94;;;13.75;100.00
5877;BME280;2964;42.144;24.730;2023-05-17T00:40:12;144960.22;;;13.62;100.00
5877;BME280;2964;42.144;24.730;2023-05-17T00:42:41;144966.47;;;13.64;100.00
5877;BME280;2964;42.144;24.730;2023-05-17T00:45:08;144979.09;;;13.69;100.00
5877;BME280;2964;42.144;24.730;2023-05-17T00:47:35;144981.63;;;13.70;100.00
5877;BME280;2964;42.144;24.730;2023-05-17T00:50:02;145021.94;;;13.87;100.00
5877;BME280;2964;42.144;24.730;2023-05-17T00:52:29;144946.34;;;13.56;100.00
5877;BME280;2964;42.144;24.730;2023-05-17T00:54:55;144911.09;;;13.42;100.00
5877;BME280;2964;42.144;24.730;2023-05-17T00:57:22;144878.31;;;13.28;100.00
5877;BME280;2964;42.144;24.730;2023-05-17T00:59:51;144918.66;;;13.45;100.00
5877;BME280;2964;42.144;24.730;2023-05-17T01:02:19;144890.97;;;13.34;100.00
5877;BME280;2964;42.144;24.730;2023-05-17T01:04:46;144873.31;;;13.26;100.00
5877;BME280;2964;42.144;24.730;2023-05-17T01:07:13;144885.91;;;13.31;100.00
5877;BME280;2964;42.144;24.730;2023-05-17T01:09:40;144951.38;;;13.58;100.00
5877;BME280;2964;42.144;24.730;2023-05-17T01:12:24;144956.41;;;13.60;100.00
5877;BME280;2964;42.144;24.730;2023-05-17T01:15:04;144960.22;;;13.62;100.00
5877;BME280;2964;42.144;24.730;2023-05-17T01:17:39;144947.59;;;13.57;100.00
5877;BME280;2964;42.144;24.730;2023-05-17T01:20:13;144916.13;;;13.44;100.00
5877;BME280;2964;42.144;24.730;2023-05-17T01:22:50;144901.03;;;13.38;100.00
5877;BME280;2964;42.144;24.730;2023-05-17T01:25:39;144883.41;;;13.30;100.00
5877;BME280;2964;42.144;24.730;2023-05-17T01:28:09;144914.88;;;13.43;100.00
5877;BME280;2964;42.144;24.730;2023-05-17T01:30:38;144855.69;;;13.19;100.00
5877;BME280;2964;42.144;24.730;2023-05-17T01:33:06;144870.75;;;13.25;100.00
5877;BME280;2964;42.144;24.730;2023-05-17T01:35:34;144888.44;;;13.32;100.00
5877;BME280;2964;42.144;24.730;2023-05-17T01:38:00;144812.84;;;13.02;100.00
5877;BME280;2964;42.144;24.730;2023-05-17T01:40:28;144901.03;;;13.38;100.00
5877;BME280;2964;42.144;24.730;2023-05-17T01:43:04;144931.22;;;13.50;100.00
5877;BME280;2964;42.144;24.730;2023-05-17T01:45:39;144946.34;;;13.56;100.00
5877;BME280;2964;42.144;24.730;2023-05-17T01:48:13;144897.25;;;13.36;100.00
5877;BME280;2964;42.144;24.730;2023-05-17T01:50:40;144845.63;;;13.15;100.00
5877;BME280;2964;42.144;24.730;2023-05-17T01:53:10;144850.66;;;13.17;100.00
5877;BME280;2964;42.144;24.730;2023-05-17T01:55:48;144835.50;;;13.11;100.00
5877;BME280;2964;42.144;24.730;2023-05-17T01:58:17;144765.06;;;12.82;100.00
5877;BME280;2964;42.144;24.730;2023-05-17T02:00:48;144804.03;;;12.98;100.00
5877;BME280;2964;42.144;24.730;2023-05-17T02:03:16;144748.69;;;12.75;100.00
5877;BME280;2964;42.144;24.730;2023-05-17T02:05:43;144782.69;;;12.89;100.00
5877;BME280;2964;42.144;24.730;2023-05-17T02:08:10;144796.53;;;12.95;100.00
5877;BME280;2964;42.144;24.730;2023-05-17T02:10:37;144777.66;;;12.87;100.00
5877;BME280;2964;42.144;24.730;2023-05-17T02:13:04;144761.28;;;12.81;100.00
5877;BME280;2964;42.144;24.730;2023-05-17T02:15:31;144783.94;;;12.90;100.00
5877;BME280;2964;42.144;24.730;2023-05-17T02:17:59;144768.84;;;12.84;100.00
5877;BME280;2964;42.144;24.730;2023-05-17T02:20:25;144785.19;;;12.90;100.00
5877;BME280;2964;42.144;24.730;2023-05-17T02:22:52;144743.66;;;12.73;100.00
5877;BME280;2964;42.144;24.730;2023-05-17T02:25:19;144756.25;;;12.79;100.00
5877;BME280;2964;42.144;24.730;2023-05-17T02:27:45;144737.38;;;12.71;100.00
5877;BME280;2964;42.144;24.730;2023-05-17T02:30:12;144728.56;;;12.67;100.00
5877;BME280;2964;42.144;24.730;2023-05-17T02:32:41;144762.53;;;12.81;100.00
5877;BME280;2964;42.144;24.730;2023-05-17T02:35:09;144734.84;;;12.70;100.00
5877;BME280;2964;42.144;24.730;2023-05-17T02:37:36;144733.59;;;12.69;100.00
5877;BME280;2964;42.144;24.730;2023-05-17T02:40:03;144528.50;;;11.86;100.00
5877;BME280;2964;42.144;24.730;2023-05-17T02:42:33;144697.13;;;12.54;100.00
5877;BME280;2964;42.144;24.730;2023-05-17T02:44:59;144689.56;;;12.51;100.00
5877;BME280;2964;42.144;24.730;2023-05-17T02:47:26;144697.13;;;12.54;100.00
5877;BME280;2964;42.144;24.730;2023-05-17T02:49:53;144699.63;;;12.55;100.00
5877;BME280;2964;42.144;24.730;2023-05-17T02:52:21;144675.72;;;12.46;100.00
5877;BME280;2964;42.144;24.730;2023-05-17T02:54:47;144675.72;;;12.46;100.00
5877;BME280;2964;42.144;24.730;2023-05-17T02:57:14;144689.56;;;12.51;100.00
5877;BME280;2964;42.144;24.730;2023-05-17T02:59:41;144656.88;;;12.38;100.00
5877;BME280;2964;42.144;24.730;2023-05-17T03:02:07;144712.19;;;12.61;100.00
5877;BME280;2964;42.144;24.730;2023-05-17T03:04:34;144704.63;;;12.58;100.00
5877;BME280;2964;42.144;24.730;2023-05-17T03:07:01;144682.00;;;12.48;100.00
5877;BME280;2964;42.144;24.730;2023-05-17T03:09:29;144693.34;;;12.53;100.00
5877;BME280;2964;42.144;24.730;2023-05-17T03:11:55;144699.63;;;12.55;100.00
5877;BME280;2964;42.144;24.730;2023-05-17T03:14:22;144719.78;;;12.64;100.00
5877;BME280;2964;42.144;24.730;2023-05-17T03:16:49;144717.22;;;12.63;100.00
5877;BME280;2964;42.144;24.730;2023-05-17T03:19:15;144724.78;;;12.66;100.00
5877;BME280;2964;42.144;24.730;2023-05-17T03:21:42;144739.88;;;12.72;100.00
5877;BME280;2964;42.144;24.730;2023-05-17T03:24:09;144762.53;;;12.81;100.00
5877;BME280;2964;42.144;24.730;2023-05-17T03:26:37;144780.16;;;12.88;100.00
5877;BME280;2964;42.144;24.730;2023-05-17T03:29:03;144819.19;;;13.04;100.00
5877;BME280;2964;42.144;24.730;2023-05-17T03:31:30;144851.88;;;13.18;100.00
5877;BME280;2964;42.144;24.730;2023-05-17T03:33:57;144831.72;;;13.09;100.00
5877;BME280;2964;42.144;24.730;2023-05-17T03:36:23;144824.22;;;13.06;100.00
5877;BME280;2964;42.144;24.730;2023-05-17T03:38:50;144817.88;;;13.04;100.00
5877;BME280;2964;42.144;24.730;2023-05-17T03:41:17;144835.50;;;13.11;100.00
5877;BME280;2964;42.144;24.730;2023-05-17T03:43:45;144839.28;;;13.12;100.00
5877;BME280;2964;42.144;24.730;2023-05-17T03:46:11;144840.53;;;13.13;100.00
5877;BME280;2964;42.144;24.730;2023-05-17T03:48:38;144853.13;;;13.18;100.00
5877;BME280;2964;42.144;24.730;2023-05-17T03:51:05;144860.69;;;13.21;100.00
5877;BME280;2964;42.144;24.730;2023-05-17T03:53:32;144872.00;;;13.26;100.00
5877;BME280;2964;42.144;24.730;2023-05-17T03:55:58;144890.97;;;13.34;100.00
5877;BME280;2964;42.144;24.730;2023-05-17T03:58:25;144870.75;;;13.25;100.00
5877;BME280;2964;42.144;24.730;2023-05-17T04:00:53;144888.44;;;13.32;100.00
5877;BME280;2964;42.144;24.730;2023-05-17T04:03:20;144901.03;;;13.38;100.00
5877;BME280;2964;42.144;24.730;2023-05-17T04:05:46;144908.56;;;13.41;100.00
5877;BME280;2964;42.144;24.730;2023-05-17T04:08:13;144885.91;;;13.31;100.00
5877;BME280;2964;42.144;24.730;2023-05-17T04:10:40;144844.31;;;13.14;100.00
5877;BME280;2964;42.144;24.730;2023-05-17T04:13:07;144872.00;;;13.26;100.00
5877;BME280;2964;42.144;24.730;2023-05-17T04:15:34;144865.72;;;13.23;100.00
5877;BME280;2964;42.144;24.730;2023-05-17T04:18:02;144880.81;;;13.29;100.00
5877;BME280;2964;42.144;24.730;2023-05-17T04:20:29;144911.09;;;13.42;100.00
5877;BME280;2964;42.144;24.730;2023-05-17T04:22:55;144931.22;;;13.50;100.00
5877;BME280;2964;42.144;24.730;2023-05-17T04:25:22;144970.25;;;13.66;100.00
5877;BME280;2964;42.144;24.730;2023-05-17T04:27:49;145006.78;;;13.81;100.00
5877;BME280;2964;42.144;24.730;2023-05-17T04:30:16;145029.44;;;13.90;100.00
5877;BME280;2964;42.144;24.730;2023-05-17T04:32:42;145068.50;;;14.06;100.00
5877;BME280;2964;42.144;24.730;2023-05-17T04:35:11;145098.72;;;14.18;100.00
5877;BME280;2964;42.144;24.730;2023-05-17T04:37:38;145128.97;;;14.31;100.00
5877;BME280;2964;42.144;24.730;2023-05-17T04:40:06;145161.69;;;14.44;100.00
5877;BME280;2964;42.144;24.730;2023-05-17T04:42:33;145127.72;;;14.30;100.00
5877;BME280;2964;42.144;24.730;2023-05-17T04:45:00;145178.09;;;14.51;100.00
5877;BME280;2964;42.144;24.730;2023-05-17T04:47:26;145112.59;;;14.24;100.00
5877;BME280;2964;42.144;24.730;2023-05-17T04:49:53;145183.13;;;14.53;100.00
5877;BME280;2964;42.144;24.730;2023-05-17T04:52:21;145171.81;;;14.48;100.00
5877;BME280;2964;42.144;24.730;2023-05-17T04:54:48;145168.03;;;14.46;100.00
5877;BME280;2964;42.144;24.730;2023-05-17T04:57:16;145222.25;;;14.69;100.00
5877;BME280;2964;42.144;24.730;2023-05-17T04:59:43;145243.69;;;14.77;100.00
5877;BME280;2964;42.144;24.730;2023-05-17T05:02:10;145228.53;;;14.71;100.00
5877;BME280;2964;42.144;24.730;2023-05-17T05:04:37;145283.97;;;14.94;100.00
5877;BME280;2964;42.144;24.730;2023-05-17T05:07:04;145257.56;;;14.83;100.00
5877;BME280;2964;42.144;24.730;2023-05-17T05:09:32;145286.53;;;14.95;100.00
5877;BME280;2964;42.144;24.730;2023-05-17T05:11:58;145291.56;;;14.97;100.00
5877;BME280;2964;42.144;24.730;2023-05-17T05:14:25;145297.84;;;14.99;100.00
5877;BME280;2964;42.144;24.730;2023-05-17T05:16:52;145307.97;;;15.03;100.00
5877;BME280;2964;42.144;24.730;2023-05-17T05:19:19;145271.41;;;14.89;100.00
5877;BME280;2964;42.144;24.730;2023-05-17T05:21:46;145315.50;;;15.06;100.00
5877;BME280;2964;42.144;24.730;2023-05-17T05:24:13;145249.97;;;14.80;100.00
5877;BME280;2964;42.144;24.730;2023-05-17T05:26:41;145249.97;;;14.80;100.00
5877;BME280;2964;42.144;24.730;2023-05-17T05:29:09;145248.72;;;14.79;100.00
5877;BME280;2964;42.144;24.730;2023-05-17T05:31:35;145268.88;;;14.88;100.00
5877;BME280;2964;42.144;24.730;2023-05-17T05:34:02;145294.09;;;14.98;100.00
5877;BME280;2964;42.144;24.730;2023-05-17T05:36:29;145313.00;;;15.05;100.00
5877;BME280;2964;42.144;24.730;2023-05-17T05:38:55;145292.81;;;14.97;100.00
5877;BME280;2964;42.144;24.730;2023-05-17T05:41:22;145336.94;;;15.15;100.00
5877;BME280;2964;42.144;24.730;2023-05-17T05:43:50;145420.13;;;15.49;100.00
5877;BME280;2964;42.144;24.730;2023-05-17T05:46:17;145470.59;;;15.70;100.00
5877;BME280;2964;42.144;24.730;2023-05-17T05:48:43;145503.44;;;15.83;100.00
5877;BME280;2964;42.144;24.730;2023-05-17T05:51:10;145468.06;;;15.69;100.00
5877;BME280;2964;42.144;24.730;2023-05-17T05:53:37;145422.66;;;15.50;100.00
5877;BME280;2964;42.144;24.730;2023-05-17T05:56:04;145503.44;;;15.83;100.00
5877;BME280;2964;42.144;24.730;2023-05-17T05:58:31;145463.03;;;15.67;100.00
5877;BME280;2964;42.144;24.730;2023-05-17T06:00:59;145494.59;;;15.79;100.00
5877;BME280;2964;42.144;24.730;2023-05-17T06:03:26;145483.22;;;15.75;100.00
5877;BME280;2964;42.144;24.730;2023-05-17T06:05:53;145492.06;;;15.78;100.00
5877;BME280;2964;42.144;24.730;2023-05-17T06:08:19;145447.91;;;15.60;100.00
5877;BME280;2964;42.144;24.730;2023-05-17T06:10:46;145422.66;;;15.50;100.00
5877;BME280;2964;42.144;24.730;2023-05-17T06:13:13;145417.63;;;15.48;100.00
5877;BME280;2964;42.144;24.730;2023-05-17T06:15:40;145369.69;;;15.29;100.00
5877;BME280;2964;42.144;24.730;2023-05-17T06:18:08;145387.34;;;15.36;100.00
5877;BME280;2964;42.144;24.730;2023-05-17T06:20:34;145437.78;;;15.56;100.00
5877;BME280;2964;42.144;24.730;2023-05-17T06:23:01;145469.31;;;15.69;100.00
5877;BME280;2964;42.144;24.730;2023-05-17T06:25:29;145476.91;;;15.72;100.00
5877;BME280;2964;42.144;24.730;2023-05-17T06:27:56;145470.59;;;15.70;100.00
5877;BME280;2964;42.144;24.730;2023-05-17T06:30:22;145548.84;;;16.01;100.00
5877;BME280;2964;42.144;24.730;2023-05-17T06:32:49;145575.34;;;16.12;100.00
5877;BME280;2964;42.144;24.730;2023-05-17T06:35:17;145547.59;;;16.01;100.00
5877;BME280;2964;42.144;24.730;2023-05-17T06:37:44;145524.88;;;15.92;100.00
5877;BME280;2964;42.144;24.730;2023-05-17T06:40:11;145537.47;;;15.97;100.00
5877;BME280;2964;42.144;24.730;2023-05-17T06:42:37;145594.25;;;16.20;100.00
5877;BME280;2964;42.144;24.730;2023-05-17T06:45:06;145625.78;;;16.33;100.00
5877;BME280;2964;42.144;24.730;2023-05-17T06:47:33;145604.34;;;16.24;100.00
5877;BME280;2964;42.144;24.730;2023-05-17T06:49:59;145647.25;;;16.42;100.00
5877;BME280;2964;42.144;24.730;2023-05-17T06:52:27;145594.25;;;16.20;100.00
5877;BME280;2964;42.144;24.730;2023-05-17T06:54:54;145618.22;;;16.30;100.00
5877;BME280;2964;42.144;24.730;2023-05-17T06:57:21;145647.25;;;16.42;100.00
5877;BME280;2964;42.144;24.730;2023-05-17T06:59:48;145596.75;;;16.21;100.00
5877;BME280;2964;42.144;24.730;2023-05-17T07:02:16;145585.41;;;16.16;100.00
5877;BME280;2964;42.144;24.730;2023-05-17T07:04:43;145579.13;;;16.14;100.00
5877;BME280;2964;42.144;24.730;2023-05-17T07:07:09;145695.19;;;16.61;100.00
5877;BME280;2964;42.144;24.730;2023-05-17T07:09:38;145701.53;;;16.64;100.00
5877;BME280;2964;42.144;24.730;2023-05-17T07:12:06;145648.50;;;16.42;100.00
5877;BME280;2964;42.144;24.730;2023-05-17T07:14:32;145625.78;;;16.33;100.00
5877;BME280;2964;42.144;24.730;2023-05-17T07:16:59;145627.03;;;16.33;100.00
5877;BME280;2964;42.144;24.730;2023-05-17T07:19:26;145638.41;;;16.38;100.00
5877;BME280;2964;42.144;24.730;2023-05-17T07:21:53;145659.84;;;16.47;100.00
5877;BME280;2964;42.144;24.730;2023-05-17T07:24:19;145675.00;;;16.53;100.00
5877;BME280;2964;42.144;24.730;2023-05-17T07:26:47;145691.38;;;16.59;100.00
5877;BME280;2964;42.144;24.730;2023-05-17T07:29:14;145652.28;;;16.44;100.00
5877;BME280;2964;42.144;24.730;2023-05-17T07:31:41;145589.22;;;16.18;100.00
5877;BME280;2964;42.144;24.730;2023-05-17T07:34:07;145499.63;;;15.81;100.00
5877;BME280;2964;42.144;24.730;2023-05-17T07:36:34;145528.63;;;15.93;100.00
5877;BME280;2964;42.144;24.730;2023-05-17T07:39:00;145432.75;;;15.54;100.00
5877;BME280;2964;42.144;24.730;2023-05-17T07:41:29;145485.78;;;15.76;100.00
5877;BME280;2964;42.144;24.730;2023-05-17T07:43:58;145430.25;;;15.53;100.00
5877;BME280;2964;42.144;24.730;2023-05-17T07:46:24;145397.44;;;15.40;100.00
5877;BME280;2964;42.144;24.730;2023-05-17T07:48:51;145357.13;;;15.23;100.00
5877;BME280;2964;42.144;24.730;2023-05-17T07:51:18;145376.03;;;15.31;100.00
5877;BME280;2964;42.144;24.730;2023-05-17T07:53:44;145354.59;;;15.22;100.00
5877;BME280;2964;42.144;24.730;2023-05-17T07:56:11;145336.94;;;15.15;100.00
5877;BME280;2964;42.144;24.730;2023-05-17T07:58:38;145326.84;;;15.11;100.00
5877;BME280;2964;42.144;24.730;2023-05-17T08:01:06;145291.56;;;14.97;100.00
5877;BME280;2964;42.144;24.730;2023-05-17T08:03:33;145339.47;;;15.16;100.00
5877;BME280;2964;42.144;24.730;2023-05-17T08:06:00;145340.72;;;15.17;100.00
5877;BME280;2964;42.144;24.730;2023-05-17T08:08:27;145323.06;;;15.10;100.00
5877;BME280;2964;42.144;24.730;2023-05-17T08:10:54;145323.06;;;15.10;100.00
5877;BME280;2964;42.144;24.730;2023-05-17T08:13:20;145399.97;;;15.41;100.00
5877;BME280;2964;42.144;24.730;2023-05-17T08:15:47;145359.63;;;15.24;100.00
5877;BME280;2964;42.144;24.730;2023-05-17T08:18:15;145343.22;;;15.18;100.00
5877;BME280;2964;42.144;24.730;2023-05-17T08:20:42;145289.06;;;14.96;100.00
5877;BME280;2964;42.144;24.730;2023-05-17T08:23:09;145270.13;;;14.88;100.00
5877;BME280;2964;42.144;24.730;2023-05-17T08:25:36;145286.53;;;14.95;100.00
5877;BME280;2964;42.144;24.730;2023-05-17T08:28:03;145291.56;;;14.97;100.00
5877;BME280;2964;42.144;24.730;2023-05-17T08:30:29;145289.06;;;14.96;100.00
5877;BME280;2964;42.144;24.730;2023-05-17T08:32:56;145252.47;;;14.81;100.00
5877;BME280;2964;42.144;24.730;2023-05-17T08:35:24;145232.31;;;14.73;100.00
5877;BME280;2964;42.144;24.730;2023-05-17T08:37:51;145200.81;;;14.60;100.00
5877;BME280;2964;42.144;24.730;2023-05-17T08:40:19;145266.38;;;14.86;100.00
5877;BME280;2964;42.144;24.730;2023-05-17T08:42:46;145233.56;;;14.73;100.00
5877;BME280;2964;42.144;24.730;2023-05-17T08:45:14;145226.03;;;14.70;100.00
5877;BME280;2964;42.144;24.730;2023-05-17T08:47:41;145215.94;;;14.66;100.00
5877;BME280;2964;42.144;24.730;2023-05-17T08:50:09;145205.84;;;14.62;100.00
5877;BME280;2964;42.144;24.730;2023-05-17T08:52:39;145204.63;;;14.61;100.00
5877;BME280;2964;42.144;24.730;2023-05-17T08:55:07;145135.28;;;14.33;100.00
5877;BME280;2964;42.144;24.730;2023-05-17T08:57:34;145150.38;;;14.39;100.00
5877;BME280;2964;42.144;24.730;2023-05-17T09:00:04;145127.72;;;14.30;100.00
5877;BME280;2964;42.144;24.730;2023-05-17T09:02:37;145191.94;;;14.56;100.00
5877;BME280;2964;42.144;24.730;2023-05-17T09:05:05;145160.44;;;14.43;100.00
5877;BME280;2964;42.144;24.730;2023-05-17T09:07:33;145185.66;;;14.54;100.00
5877;BME280;2964;42.144;24.730;2023-05-17T09:10:01;145180.63;;;14.52;100.00
5877;BME280;2964;42.144;24.730;2023-05-17T09:12:30;145110.06;;;14.23;100.00
5877;BME280;2964;42.144;24.730;2023-05-17T09:15:11;145183.13;;;14.53;100.00
5877;BME280;2964;42.144;24.730;2023-05-17T09:17:39;145171.81;;;14.48;100.00
5877;BME280;2964;42.144;24.730;2023-05-17T09:20:06;145198.28;;;14.59;100.00
5877;BME280;2964;42.144;24.730;2023-05-17T09:22:34;145232.31;;;14.73;100.00
5877;BME280;2964;42.144;24.730;2023-05-17T09:25:02;145203.38;;;14.61;100.00
5877;BME280;2964;42.144;24.730;2023-05-17T09:27:30;145160.44;;;14.43;100.00
5877;BME280;2964;42.144;24.730;2023-05-17T09:29:57;145118.88;;;14.26;100.00
5877;BME280;2964;42.144;24.730;2023-05-17T09:32:23;145181.88;;;14.52;100.00
5877;BME280;2964;42.144;24.730;2023-05-17T09:34:50;145142.81;;;14.36;100.00
5877;BME280;2964;42.144;24.730;2023-05-17T09:37:18;145140.31;;;14.35;100.00
5877;BME280;2964;42.144;24.730;2023-05-17T09:39:46;145079.81;;;14.10;100.00
5877;BME280;2964;42.144;24.730;2023-05-17T09:42:16;145228.53;;;14.71;100.00
5877;BME280;2964;42.144;24.730;2023-05-17T09:44:47;145190.69;;;14.56;100.00
5877;BME280;2964;42.144;24.730;2023-05-17T09:47:22;145214.69;;;14.65;100.00
5877;BME280;2964;42.144;24.730;2023-05-17T09:49:49;145213.44;;;14.65;100.00
5877;BME280;2964;42.144;24.730;2023-05-17T09:52:17;145301.63;;;15.01;100.00
5877;BME280;2964;42.144;24.730;2023-05-17T09:54:51;145354.59;;;15.22;100.00
5877;BME280;2964;42.144;24.730;2023-05-17T09:57:20;145358.38;;;15.24;100.00
5877;BME280;2964;42.144;24.730;2023-05-17T09:59:47;145315.50;;;15.06;100.00
5877;BME280;2964;42.144;24.730;2023-05-17T10:02:19;145283.97;;;14.94;100.00
5877;BME280;2964;42.144;24.730;2023-05-17T10:04:48;145323.06;;;15.10;100.00
5877;BME280;2964;42.144;24.730;2023-05-17T10:07:18;145343.22;;;15.18;100.00
5877;BME280;2964;42.144;24.730;2023-05-17T10:09:46;145278.94;;;14.92;100.00
5877;BME280;2964;42.144;24.730;2023-05-17T10:12:15;145297.84;;;14.99;100.00
5877;BME280;2964;42.144;24.730;2023-05-17T10:14:44;145295.34;;;14.98;100.00
5877;BME280;2964;42.144;24.730;2023-05-17T10:17:11;145328.09;;;15.12;100.00
5877;BME280;2964;42.144;24.730;2023-05-17T10:19:38;145359.63;;;15.24;100.00
5877;BME280;2964;42.144;24.730;2023-05-17T10:22:06;145341.97;;;15.17;100.00
5877;BME280;2964;42.144;24.730;2023-05-17T10:24:33;145330.66;;;15.13;100.00
5877;BME280;2964;42.144;24.730;2023-05-17T10:27:01;145354.59;;;15.22;100.00
5877;BME280;2964;42.144;24.730;2023-05-17T10:29:29;145316.78;;;15.07;100.00
5877;BME280;2964;42.144;24.730;2023-05-17T10:32:02;145383.56;;;15.34;100.00
5877;BME280;2964;42.144;24.730;2023-05-17T10:34:30;145349.56;;;15.20;100.00
5877;BME280;2964;42.144;24.730;2023-05-17T10:36:59;145334.44;;;15.14;100.00
5877;BME280;2964;42.144;24.730;2023-05-17T10:39:27;145228.53;;;14.71;100.00
5877;BME280;2964;42.144;24.730;2023-05-17T10:41:55;145319.28;;;15.08;100.00
5877;BME280;2964;42.144;24.730;2023-05-17T10:44:23;145316.78;;;15.07;100.00
5877;BME280;2964;42.144;24.730;2023-05-17T10:46:51;145357.13;;;15.23;100.00
5877;BME280;2964;42.144;24.730;2023-05-17T10:49:23;145357.13;;;15.23;100.00
5877;BME280;2964;42.144;24.730;2023-05-17T10:51:50;145394.94;;;15.39;100.00
5877;BME280;2964;42.144;24.730;2023-05-17T10:54:17;145369.69;;;15.29;100.00
5877;BME280;2964;42.144;24.730;2023-05-17T10:56:47;145354.59;;;15.22;100.00
5877;BME280;2964;42.144;24.730;2023-05-17T10:59:22;145355.84;;;15.23;100.00
5877;BME280;2964;42.144;24.730;2023-05-17T11:01:55;145316.78;;;15.07;100.00
5877;BME280;2964;42.144;24.730;2023-05-17T11:04:26;145363.41;;;15.26;100.00
5877;BME280;2964;42.144;24.730;2023-05-17T11:10:03;145382.31;;;15.34;100.00
5877;BME280;2964;42.144;24.730;2023-05-17T11:12:33;145407.56;;;15.44;100.00
5877;BME280;2964;42.144;24.730;2023-05-17T11:15:03;145358.38;;;15.24;100.00
5877;BME280;2964;42.144;24.730;2023-05-17T11:17:46;145355.84;;;15.23;100.00
5877;BME280;2964;42.144;24.730;2023-05-17T11:20:32;145397.44;;;15.40;100.00
5877;BME280;2964;42.144;24.730;2023-05-17T11:23:02;145389.91;;;15.37;100.00
5877;BME280;2964;42.144;24.730;2023-05-17T11:25:30;145353.34;;;15.22;100.00
5877;BME280;2964;42.144;24.730;2023-05-17T11:28:00;145338.19;;;15.16;100.00
5877;BME280;2964;42.144;24.730;2023-05-17T11:30:32;145313.00;;;15.05;100.00
5877;BME280;2964;42.144;24.730;2023-05-17T11:33:00;145344.50;;;15.18;100.00
5877;BME280;2964;42.144;24.730;2023-05-17T11:35:28;145343.22;;;15.18;100.00
5877;BME280;2964;42.144;24.730;2023-05-17T11:38:16;145389.91;;;15.37;100.00
5877;BME280;2964;42.144;24.730;2023-05-17T11:40:43;145379.81;;;15.33;100.00
5877;BME280;2964;42.144;24.730;2023-05-17T11:43:15;145393.69;;;15.38;100.00
5877;BME280;2964;42.144;24.730;2023-05-17T11:45:44;145401.22;;;15.41;100.00
5877;BME280;2964;42.144;24.730;2023-05-17T11:48:12;145388.66;;;15.36;100.00
5877;BME280;2964;42.144;24.730;2023-05-17T11:50:39;145411.34;;;15.46;100.00
5877;BME280;2964;42.144;24.730;2023-05-17T11:53:07;145418.88;;;15.49;100.00
5877;BME280;2964;42.144;24.730;2023-05-17T11:55:38;145378.53;;;15.32;100.00
5877;BME280;2964;42.144;24.730;2023-05-17T11:58:07;145364.66;;;15.27;100.00
5877;BME280;2964;42.144;24.730;2023-05-17T12:00:34;145381.06;;;15.33;100.00
5877;BME280;2964;42.144;24.730;2023-05-17T12:03:17;145345.75;;;15.19;100.00
5877;BME280;2964;42.144;24.730;2023-05-17T12:05:45;145339.47;;;15.16;100.00
5877;BME280;2964;42.144;24.730;2023-05-17T12:08:14;145425.22;;;15.51;100.00
5877;BME280;2964;42.144;24.730;2023-05-17T12:10:45;145387.34;;;15.36;100.00
5877;BME280;2964;42.144;24.730;2023-05-17T12:13:13;145369.69;;;15.29;100.00
5877;BME280;2964;42.144;24.730;2023-05-17T12:15:43;145313.00;;;15.05;100.00
5877;BME280;2964;42.144;24.730;2023-05-17T12:18:10;145377.28;;;15.32;100.00
5877;BME280;2964;42.144;24.730;2023-05-17T12:20:37;145326.84;;;15.11;100.00
5877;BME280;2964;42.144;24.730;2023-05-17T12:23:04;145334.44;;;15.14;100.00
5877;BME280;2964;42.144;24.730;2023-05-17T12:25:31;145354.59;;;15.22;100.00
5877;BME280;2964;42.144;24.730;2023-05-17T12:28:15;145349.56;;;15.20;100.00
5877;BME280;2964;42.144;24.730;2023-05-17T12:30:43;145324.31;;;15.10;100.00
5877;BME280;2964;42.144;24.730;2023-05-17T12:33:10;145352.03;;;15.21;100.00
5877;BME280;2964;42.144;24.730;2023-05-17T12:35:37;145402.50;;;15.42;100.00
5877;BME280;2964;42.144;24.730;2023-05-17T12:38:04;145378.53;;;15.32;100.00
5877;BME280;2964;42.144;24.730;2023-05-17T12:40:31;145348.31;;;15.20;100.00
5877;BME280;2964;42.144;24.730;2023-05-17T12:43:01;145387.34;;;15.36;100.00
5877;BME280;2964;42.144;24.730;2023-05-17T12:45:29;145444.13;;;15.59;100.00
5877;BME280;2964;42.144;24.730;2023-05-17T12:47:58;145466.81;;;15.68;100.00
5877;BME280;2964;42.144;24.730;2023-05-17T12:50:27;145488.31;;;15.77;100.00
5877;BME280;2964;42.144;24.730;2023-05-17T12:52:54;145456.75;;;15.64;100.00
5877;BME280;2964;42.144;24.730;2023-05-17T12:55:21;145485.78;;;15.76;100.00
5877;BME280;2964;42.144;24.730;2023-05-17T12:57:49;145359.63;;;15.24;100.00